sensor_id;sensor_type;location;lat;lon;timestamp;temperature;humidity
14577;DHT22;7375;46.072;14.470;2023-04-01T00:00:53;24.50;49.60
14577;DHT22;7375;46.072;14.470;2023-04-01T00:03:20;24.60;49.50
14577;DHT22;7375;46.072;14.470;2023-04-01T00:05:47;24.60;49.40
14577;DHT22;7375;46.072;14.470;2023-04-01T00:08:14;24.60;49.30
14577;DHT22;7375;46.072;14.470;2023-04-01T00:10:40;24.60;49.30
14577;DHT22;7375;46.072;14.470;2023-04-01T00:13:07;24.60;49.20
14577;DHT22;7375;46.072;14.470;2023-04-01T00:15:34;24.60;49.30
14577;DHT22;7375;46.072;14.470;2023-04-01T00:18:03;24.60;49.20
14577;DHT22;7375;46.072;14.470;2023-04-01T00:20:30;24.60;49.10
14577;DHT22;7375;46.072;14.470;2023-04-01T00:22:57;24.60;49.00
14577;DHT22;7375;46.072;14.470;2023-04-01T00:25:24;24.60;48.90
14577;DHT22;7375;46.072;14.470;2023-04-01T00:27:50;24.70;49.00
14577;DHT22;7375;46.072;14.470;2023-04-01T00:30:17;24.60;48.80
14577;DHT22;7375;46.072;14.470;2023-04-01T00:32:44;24.60;48.80
14577;DHT22;7375;46.072;14.470;2023-04-01T00:35:13;24.60;48.80
14577;DHT22;7375;46.072;14.470;2023-04-01T00:37:39;24.70;48.70
14577;DHT22;7375;46.072;14.470;2023-04-01T00:40:07;24.60;48.70
14577;DHT22;7375;46.072;14.470;2023-04-01T00:42:34;24.60;48.70
14577;DHT22;7375;46.072;14.470;2023-04-01T00:47:42;24.70;48.60
14577;DHT22;7375;46.072;14.470;2023-04-01T00:50:09;24.70;48.60
14577;DHT22;7375;46.072;14.470;2023-04-01T00:52:37;24.70;48.50
14577;DHT22;7375;46.072;14.470;2023-04-01T00:55:05;24.70;48.40
14577;DHT22;7375;46.072;14.470;2023-04-01T00:57:34;24.70;48.40
14577;DHT22;7375;46.072;14.470;2023-04-01T01:00:03;24.70;48.40
14577;DHT22;7375;46.072;14.470;2023-04-01T01:02:32;24.70;48.30
14577;DHT22;7375;46.072;14.470;2023-04-01T01:04:59;24.70;48.30
14577;DHT22;7375;46.072;14.470;2023-04-01T01:07:26;24.70;48.20
14577;DHT22;7375;46.072;14.470;2023-04-01T01:09:58;24.80;48.20
14577;DHT22;7375;46.072;14.470;2023-04-01T01:12:25;24.80;48.10
14577;DHT22;7375;46.072;14.470;2023-04-01T01:14:56;24.70;48.00
14577;DHT22;7375;46.072;14.470;2023-04-01T01:17:31;24.80;48.00
14577;DHT22;7375;46.072;14.470;2023-04-01T01:22:49;24.80;47.70
14577;DHT22;7375;46.072;14.470;2023-04-01T01:25:25;24.90;47.70
14577;DHT22;7375;46.072;14.470;2023-04-01T01:27:56;24.80;47.70
14577;DHT22;7375;46.072;14.470;2023-04-01T01:30:35;24.80;47.80
14577;DHT22;7375;46.072;14.470;2023-04-01T01:33:13;24.90;47.60
14577;DHT22;7375;46.072;14.470;2023-04-01T01:35:44;25.00;47.60
14577;DHT22;7375;46.072;14.470;2023-04-01T01:38:13;24.90;47.40
14577;DHT22;7375;46.072;14.470;2023-04-01T01:40:42;25.00;47.20
14577;DHT22;7375;46.072;14.470;2023-04-01T01:43:11;25.10;47.10
14577;DHT22;7375;46.072;14.470;2023-04-01T01:45:39;25.20;46.90
14577;DHT22;7375;46.072;14.470;2023-04-01T01:48:06;25.20;46.80
14577;DHT22;7375;46.072;14.470;2023-04-01T01:50:35;25.20;46.60
14577;DHT22;7375;46.072;14.470;2023-04-01T01:53:05;25.30;46.60
14577;DHT22;7375;46.072;14.470;2023-04-01T01:55:33;25.40;46.30
14577;DHT22;7375;46.072;14.470;2023-04-01T01:58:02;25.40;46.20
14577;DHT22;7375;46.072;14.470;2023-04-01T02:00:32;25.40;46.10
14577;DHT22;7375;46.072;14.470;2023-04-01T02:03:00;25.40;46.10
14577;DHT22;7375;46.072;14.470;2023-04-01T02:05:27;25.40;46.00
14577;DHT22;7375;46.072;14.470;2023-04-01T02:07:57;25.50;46.00
14577;DHT22;7375;46.072;14.470;2023-04-01T02:10:28;25.50;45.80
14577;DHT22;7375;46.072;14.470;2023-04-01T02:12:58;25.50;45.90
14577;DHT22;7375;46.072;14.470;2023-04-01T02:15:26;25.50;46.00
14577;DHT22;7375;46.072;14.470;2023-04-01T02:17:55;25.40;45.90
14577;DHT22;7375;46.072;14.470;2023-04-01T02:20:23;25.40;45.80
14577;DHT22;7375;46.072;14.470;2023-04-01T02:22:50;25.50;45.80
14577;DHT22;7375;46.072;14.470;2023-04-01T02:25:18;25.40;45.70
14577;DHT22;7375;46.072;14.470;2023-04-01T02:27:48;25.50;45.70
14577;DHT22;7375;46.072;14.470;2023-04-01T02:30:15;25.50;45.50
14577;DHT22;7375;46.072;14.470;2023-04-01T02:32:42;25.60;45.50
14577;DHT22;7375;46.072;14.470;2023-04-01T02:35:10;25.60;45.40
14577;DHT22;7375;46.072;14.470;2023-04-01T02:37:37;25.50;45.40
14577;DHT22;7375;46.072;14.470;2023-04-01T02:40:08;25.50;45.50
14577;DHT22;7375;46.072;14.470;2023-04-01T02:42:35;25.50;45.40
14577;DHT22;7375;46.072;14.470;2023-04-01T02:45:04;25.50;45.40
14577;DHT22;7375;46.072;14.470;2023-04-01T02:47:31;25.50;45.40
14577;DHT22;7375;46.072;14.470;2023-04-01T02:49:57;25.60;45.40
14577;DHT22;7375;46.072;14.470;2023-04-01T02:52:24;25.50;45.30
14577;DHT22;7375;46.072;14.470;2023-04-01T02:54:51;25.60;45.20
14577;DHT22;7375;46.072;14.470;2023-04-01T02:57:18;25.60;45.10
14577;DHT22;7375;46.072;14.470;2023-04-01T02:59:45;25.60;45.20
14577;DHT22;7375;46.072;14.470;2023-04-01T03:02:13;25.60;45.20
14577;DHT22;7375;46.072;14.470;2023-04-01T03:04:40;25.60;45.30
14577;DHT22;7375;46.072;14.470;2023-04-01T03:07:07;25.60;45.20
14577;DHT22;7375;46.072;14.470;2023-04-01T03:09:35;25.50;45.10
14577;DHT22;7375;46.072;14.470;2023-04-01T03:12:02;25.50;45.20
14577;DHT22;7375;46.072;14.470;2023-04-01T03:14:29;25.60;45.10
14577;DHT22;7375;46.072;14.470;2023-04-01T03:16:55;25.60;45.10
14577;DHT22;7375;46.072;14.470;2023-04-01T03:19:23;25.50;45.10
14577;DHT22;7375;46.072;14.470;2023-04-01T03:21:50;25.60;45.00
14577;DHT22;7375;46.072;14.470;2023-04-01T03:24:17;25.60;44.90
14577;DHT22;7375;46.072;14.470;2023-04-01T03:26:44;25.60;44.90
14577;DHT22;7375;46.072;14.470;2023-04-01T03:29:10;25.60;45.00
14577;DHT22;7375;46.072;14.470;2023-04-01T03:31:37;25.60;45.00
14577;DHT22;7375;46.072;14.470;2023-04-01T03:34:04;25.50;45.10
14577;DHT22;7375;46.072;14.470;2023-04-01T03:36:32;25.40;45.40
14577;DHT22;7375;46.072;14.470;2023-04-01T03:38:59;25.50;45.20
14577;DHT22;7375;46.072;14.470;2023-04-01T03:41:26;25.70;44.80
14577;DHT22;7375;46.072;14.470;2023-04-01T03:43:53;26.00;44.10
14577;DHT22;7375;46.072;14.470;2023-04-01T03:46:20;26.40;43.40
14577;DHT22;7375;46.072;14.470;2023-04-01T03:48:46;26.90;42.40
14577;DHT22;7375;46.072;14.470;2023-04-01T03:51:13;27.40;41.50
14577;DHT22;7375;46.072;14.470;2023-04-01T03:53:41;27.80;40.70
14577;DHT22;7375;46.072;14.470;2023-04-01T03:56:08;28.20;40.00
14577;DHT22;7375;46.072;14.470;2023-04-01T03:58:35;28.50;39.40
14577;DHT22;7375;46.072;14.470;2023-04-01T04:01:02;28.80;38.90
14577;DHT22;7375;46.072;14.470;2023-04-01T04:03:28;29.00;38.60
14577;DHT22;7375;46.072;14.470;2023-04-01T04:05:55;29.30;38.10
14577;DHT22;7375;46.072;14.470;2023-04-01T04:08:22;29.50;37.80
14577;DHT22;7375;46.072;14.470;2023-04-01T04:10:55;29.60;37.60
14577;DHT22;7375;46.072;14.470;2023-04-01T04:13:22;29.70;37.50
14577;DHT22;7375;46.072;14.470;2023-04-01T04:15:49;29.90;37.00
14577;DHT22;7375;46.072;14.470;2023-04-01T04:18:15;30.00;36.80
14577;DHT22;7375;46.072;14.470;2023-04-01T04:20:43;30.10;36.80
14577;DHT22;7375;46.072;14.470;2023-04-01T04:23:11;30.00;36.90
14577;DHT22;7375;46.072;14.470;2023-04-01T04:25:37;30.10;36.80
14577;DHT22;7375;46.072;14.470;2023-04-01T04:28:05;30.00;37.50
14577;DHT22;7375;46.072;14.470;2023-04-01T04:30:32;29.90;36.80
14577;DHT22;7375;46.072;14.470;2023-04-01T04:32:59;29.90;36.90
14577;DHT22;7375;46.072;14.470;2023-04-01T04:35:26;29.80;37.00
14577;DHT22;7375;46.072;14.470;2023-04-01T04:37:52;29.70;37.10
14577;DHT22;7375;46.072;14.470;2023-04-01T04:40:19;29.90;36.90
14577;DHT22;7375;46.072;14.470;2023-04-01T04:42:46;29.80;37.10
14577;DHT22;7375;46.072;14.470;2023-04-01T04:45:14;29.80;37.10
14577;DHT22;7375;46.072;14.470;2023-04-01T04:47:41;29.90;37.40
14577;DHT22;7375;46.072;14.470;2023-04-01T04:50:08;30.00;36.80
14577;DHT22;7375;46.072;14.470;2023-04-01T04:52:35;29.90;36.70
14577;DHT22;7375;46.072;14.470;2023-04-01T04:55:01;30.00;36.60
14577;DHT22;7375;46.072;14.470;2023-04-01T04:57:36;30.00;36.60
14577;DHT22;7375;46.072;14.470;2023-04-01T05:00:03;30.00;36.50
14577;DHT22;7375;46.072;14.470;2023-04-01T05:02:31;30.00;36.50
14577;DHT22;7375;46.072;14.470;2023-04-01T05:04:58;29.90;36.70
14577;DHT22;7375;46.072;14.470;2023-04-01T05:07:25;30.00;36.60
14577;DHT22;7375;46.072;14.470;2023-04-01T05:09:52;30.00;36.50
14577;DHT22;7375;46.072;14.470;2023-04-01T05:12:18;30.00;36.50
14577;DHT22;7375;46.072;14.470;2023-04-01T05:14:45;30.00;36.50
14577;DHT22;7375;46.072;14.470;2023-04-01T05:17:12;30.00;36.60
14577;DHT22;7375;46.072;14.470;2023-04-01T05:19:41;30.10;36.60
14577;DHT22;7375;46.072;14.470;2023-04-01T05:22:07;30.00;36.60
14577;DHT22;7375;46.072;14.470;2023-04-01T05:24:34;29.90;36.60
14577;DHT22;7375;46.072;14.470;2023-04-01T05:27:01;30.00;36.60
14577;DHT22;7375;46.072;14.470;2023-04-01T05:29:28;30.00;36.40
14577;DHT22;7375;46.072;14.470;2023-04-01T05:31:54;30.10;36.30
14577;DHT22;7375;46.072;14.470;2023-04-01T05:34:21;30.10;36.20
14577;DHT22;7375;46.072;14.470;2023-04-01T05:36:49;30.10;36.30
14577;DHT22;7375;46.072;14.470;2023-04-01T05:39:17;30.10;36.40
14577;DHT22;7375;46.072;14.470;2023-04-01T05:41:44;30.00;36.30
14577;DHT22;7375;46.072;14.470;2023-04-01T05:44:11;29.90;36.50
14577;DHT22;7375;46.072;14.470;2023-04-01T05:46:38;29.90;36.60
14577;DHT22;7375;46.072;14.470;2023-04-01T05:49:05;29.80;36.80
14577;DHT22;7375;46.072;14.470;2023-04-01T05:51:31;29.80;36.80
14577;DHT22;7375;46.072;14.470;2023-04-01T05:54:00;29.60;37.20
14577;DHT22;7375;46.072;14.470;2023-04-01T05:56:27;29.60;37.10
14577;DHT22;7375;46.072;14.470;2023-04-01T05:58:53;29.60;37.30
14577;DHT22;7375;46.072;14.470;2023-04-01T06:01:20;29.50;37.30
14577;DHT22;7375;46.072;14.470;2023-04-01T06:03:47;29.50;37.10
14577;DHT22;7375;46.072;14.470;2023-04-01T06:06:14;29.50;37.10
14577;DHT22;7375;46.072;14.470;2023-04-01T06:08:41;29.40;37.10
14577;DHT22;7375;46.072;14.470;2023-04-01T06:11:15;29.40;37.10
14577;DHT22;7375;46.072;14.470;2023-04-01T06:14:04;29.40;37.60
14577;DHT22;7375;46.072;14.470;2023-04-01T06:16:36;29.30;37.00
14577;DHT22;7375;46.072;14.470;2023-04-01T06:19:09;29.40;37.10
14577;DHT22;7375;46.072;14.470;2023-04-01T06:21:47;29.40;37.00
14577;DHT22;7375;46.072;14.470;2023-04-01T06:24:22;29.20;37.10
14577;DHT22;7375;46.072;14.470;2023-04-01T06:26:55;29.30;37.30
14577;DHT22;7375;46.072;14.470;2023-04-01T06:32:10;29.40;37.30
14577;DHT22;7375;46.072;14.470;2023-04-01T06:34:44;29.30;37.30
14577;DHT22;7375;46.072;14.470;2023-04-01T06:37:28;29.40;37.40
14577;DHT22;7375;46.072;14.470;2023-04-01T06:40:12;29.30;38.00
14577;DHT22;7375;46.072;14.470;2023-04-01T06:42:54;26.30;39.70
14577;DHT22;7375;46.072;14.470;2023-04-01T06:45:29;27.40;39.70
14577;DHT22;7375;46.072;14.470;2023-04-01T06:48:01;27.70;39.30
14577;DHT22;7375;46.072;14.470;2023-04-01T06:53:52;27.60;39.00
14577;DHT22;7375;46.072;14.470;2023-04-01T06:56:21;27.40;39.70
14577;DHT22;7375;46.072;14.470;2023-04-01T06:58:53;27.20;39.70
14577;DHT22;7375;46.072;14.470;2023-04-01T07:01:21;27.20;40.00
14577;DHT22;7375;46.072;14.470;2023-04-01T07:03:49;27.00;40.80
14577;DHT22;7375;46.072;14.470;2023-04-01T07:06:20;26.90;41.00
14577;DHT22;7375;46.072;14.470;2023-04-01T07:08:50;26.90;41.50
14577;DHT22;7375;46.072;14.470;2023-04-01T07:11:20;27.00;42.00
14577;DHT22;7375;46.072;14.470;2023-04-01T07:13:49;27.20;42.40
14577;DHT22;7375;46.072;14.470;2023-04-01T07:16:20;27.00;41.40
14577;DHT22;7375;46.072;14.470;2023-04-01T07:18:48;27.10;41.90
14577;DHT22;7375;46.072;14.470;2023-04-01T07:21:22;27.30;42.00
14577;DHT22;7375;46.072;14.470;2023-04-01T07:23:50;27.40;41.70
14577;DHT22;7375;46.072;14.470;2023-04-01T07:26:19;27.30;42.20
14577;DHT22;7375;46.072;14.470;2023-04-01T07:28:46;27.20;42.60
14577;DHT22;7375;46.072;14.470;2023-04-01T07:31:15;27.00;42.10
14577;DHT22;7375;46.072;14.470;2023-04-01T07:33:48;27.00;42.40
14577;DHT22;7375;46.072;14.470;2023-04-01T07:36:18;26.70;43.10
14577;DHT22;7375;46.072;14.470;2023-04-01T07:38:51;26.40;43.60
14577;DHT22;7375;46.072;14.470;2023-04-01T07:41:23;26.20;44.00
14577;DHT22;7375;46.072;14.470;2023-04-01T07:43:56;26.10;44.10
14577;DHT22;7375;46.072;14.470;2023-04-01T07:46:33;25.80;44.50
14577;DHT22;7375;46.072;14.470;2023-04-01T07:49:03;25.70;45.00
14577;DHT22;7375;46.072;14.470;2023-04-01T07:51:31;25.60;45.10
14577;DHT22;7375;46.072;14.470;2023-04-01T07:54:06;25.40;45.30
14577;DHT22;7375;46.072;14.470;2023-04-01T07:56:36;25.40;45.30
14577;DHT22;7375;46.072;14.470;2023-04-01T07:59:05;25.40;45.50
14577;DHT22;7375;46.072;14.470;2023-04-01T08:01:36;25.50;45.30
14577;DHT22;7375;46.072;14.470;2023-04-01T08:04:11;25.40;45.40
14577;DHT22;7375;46.072;14.470;2023-04-01T08:06:43;25.20;45.50
14577;DHT22;7375;46.072;14.470;2023-04-01T08:09:13;25.00;46.00
14577;DHT22;7375;46.072;14.470;2023-04-01T08:11:43;24.90;45.90
14577;DHT22;7375;46.072;14.470;2023-04-01T08:14:16;24.80;46.00
14577;DHT22;7375;46.072;14.470;2023-04-01T08:16:46;24.70;46.20
14577;DHT22;7375;46.072;14.470;2023-04-01T08:19:19;24.60;46.20
14577;DHT22;7375;46.072;14.470;2023-04-01T08:21:48;24.70;46.30
14577;DHT22;7375;46.072;14.470;2023-04-01T08:24:19;24.60;46.20
14577;DHT22;7375;46.072;14.470;2023-04-01T08:26:49;24.70;46.30
14577;DHT22;7375;46.072;14.470;2023-04-01T08:29:17;24.80;46.20
14577;DHT22;7375;46.072;14.470;2023-04-01T08:31:48;24.80;46.10
14577;DHT22;7375;46.072;14.470;2023-04-01T08:34:24;24.80;46.10
14577;DHT22;7375;46.072;14.470;2023-04-01T08:36:52;25.10;46.00
14577;DHT22;7375;46.072;14.470;2023-04-01T08:39:21;25.40;45.60
14577;DHT22;7375;46.072;14.470;2023-04-01T08:42:08;25.50;45.30
14577;DHT22;7375;46.072;14.470;2023-04-01T08:44:45;25.60;45.20
14577;DHT22;7375;46.072;14.470;2023-04-01T08:53:09;25.20;45.80
14577;DHT22;7375;46.072;14.470;2023-04-01T08:55:47;25.20;45.80
14577;DHT22;7375;46.072;14.470;2023-04-01T08:58:26;25.00;46.10
14577;DHT22;7375;46.072;14.470;2023-04-01T09:01:02;24.80;46.30
14577;DHT22;7375;46.072;14.470;2023-04-01T09:03:57;24.60;46.60
14577;DHT22;7375;46.072;14.470;2023-04-01T09:09:17;24.40;46.50
14577;DHT22;7375;46.072;14.470;2023-04-01T09:14:38;24.50;46.50
14577;DHT22;7375;46.072;14.470;2023-04-01T09:17:27;24.50;46.40
14577;DHT22;7375;46.072;14.470;2023-04-01T09:20:05;24.50;46.40
14577;DHT22;7375;46.072;14.470;2023-04-01T09:22:41;24.40;46.50
14577;DHT22;7375;46.072;14.470;2023-04-01T09:27:57;24.40;46.60
14577;DHT22;7375;46.072;14.470;2023-04-01T09:30:32;24.50;46.60
14577;DHT22;7375;46.072;14.470;2023-04-01T09:35:56;24.50;46.50
14577;DHT22;7375;46.072;14.470;2023-04-01T09:38:29;24.40;46.70
14577;DHT22;7375;46.072;14.470;2023-04-01T09:40:56;24.30;47.00
14577;DHT22;7375;46.072;14.470;2023-04-01T09:43:30;24.30;47.10
14577;DHT22;7375;46.072;14.470;2023-04-01T09:46:11;24.30;46.80
14577;DHT22;7375;46.072;14.470;2023-04-01T09:51:26;24.20;47.20
14577;DHT22;7375;46.072;14.470;2023-04-01T09:54:00;24.00;47.30
14577;DHT22;7375;46.072;14.470;2023-04-01T09:59:21;23.90;47.70
14577;DHT22;7375;46.072;14.470;2023-04-01T10:02:03;23.80;47.70
14577;DHT22;7375;46.072;14.470;2023-04-01T10:07:33;23.70;47.90
14577;DHT22;7375;46.072;14.470;2023-04-01T10:21:39;23.60;48.30
14577;DHT22;7375;46.072;14.470;2023-04-01T10:29:58;23.50;48.50
14577;DHT22;7375;46.072;14.470;2023-04-01T10:41:10;23.20;48.80
14577;DHT22;7375;46.072;14.470;2023-04-01T10:43:51;23.20;48.90
14577;DHT22;7375;46.072;14.470;2023-04-01T10:46:30;23.20;49.10
14577;DHT22;7375;46.072;14.470;2023-04-01T10:57:31;23.20;49.10
14577;DHT22;7375;46.072;14.470;2023-04-01T11:03:14;23.20;49.00
14577;DHT22;7375;46.072;14.470;2023-04-01T11:11:40;23.30;49.00
14577;DHT22;7375;46.072;14.470;2023-04-01T11:14:29;23.30;49.10
14577;DHT22;7375;46.072;14.470;2023-04-01T11:17:09;23.20;49.20
14577;DHT22;7375;46.072;14.470;2023-04-01T11:19:49;23.20;49.40
14577;DHT22;7375;46.072;14.470;2023-04-01T11:22:33;23.10;49.50
14577;DHT22;7375;46.072;14.470;2023-04-01T11:27:56;23.00;49.80
14577;DHT22;7375;46.072;14.470;2023-04-01T11:30:36;23.00;49.90
14577;DHT22;7375;46.072;14.470;2023-04-01T11:33:05;23.00;50.10
14577;DHT22;7375;46.072;14.470;2023-04-01T11:35:40;22.90;50.20
14577;DHT22;7375;46.072;14.470;2023-04-01T11:38:17;22.90;50.30
14577;DHT22;7375;46.072;14.470;2023-04-01T11:40:47;22.90;50.40
14577;DHT22;7375;46.072;14.470;2023-04-01T11:43:21;22.80;50.60
14577;DHT22;7375;46.072;14.470;2023-04-01T11:45:53;22.80;50.60
14577;DHT22;7375;46.072;14.470;2023-04-01T11:48:25;22.80;50.60
14577;DHT22;7375;46.072;14.470;2023-04-01T11:51:02;22.70;51.20
14577;DHT22;7375;46.072;14.470;2023-04-01T11:53:34;22.70;50.60
14577;DHT22;7375;46.072;14.470;2023-04-01T11:56:10;22.70;50.70
14577;DHT22;7375;46.072;14.470;2023-04-01T11:58:53;22.70;50.70
14577;DHT22;7375;46.072;14.470;2023-04-01T12:01:27;22.70;50.90
14577;DHT22;7375;46.072;14.470;2023-04-01T12:06:44;22.60;51.10
14577;DHT22;7375;46.072;14.470;2023-04-01T12:09:17;22.60;51.40
14577;DHT22;7375;46.072;14.470;2023-04-01T12:11:48;22.60;51.40
14577;DHT22;7375;46.072;14.470;2023-04-01T12:14:19;22.60;51.50
14577;DHT22;7375;46.072;14.470;2023-04-01T12:16:58;22.50;51.50
14577;DHT22;7375;46.072;14.470;2023-04-01T12:19:27;22.50;51.60
14577;DHT22;7375;46.072;14.470;2023-04-01T12:22:00;22.50;51.80
14577;DHT22;7375;46.072;14.470;2023-04-01T12:24:33;22.50;51.90
14577;DHT22;7375;46.072;14.470;2023-04-01T12:27:06;22.40;51.80
14577;DHT22;7375;46.072;14.470;2023-04-01T12:29:46;22.40;52.00
14577;DHT22;7375;46.072;14.470;2023-04-01T12:32:17;22.40;52.00
14577;DHT22;7375;46.072;14.470;2023-04-01T12:37:34;22.40;52.60
14577;DHT22;7375;46.072;14.470;2023-04-01T12:40:09;22.40;52.70
14577;DHT22;7375;46.072;14.470;2023-04-01T12:42:46;22.30;52.50
14577;DHT22;7375;46.072;14.470;2023-04-01T12:45:19;22.30;52.40
14577;DHT22;7375;46.072;14.470;2023-04-01T12:47:56;22.30;52.50
14577;DHT22;7375;46.072;14.470;2023-04-01T12:50:28;22.30;52.50
14577;DHT22;7375;46.072;14.470;2023-04-01T12:53:01;22.30;52.50
14577;DHT22;7375;46.072;14.470;2023-04-01T12:55:37;22.30;52.50
14577;DHT22;7375;46.072;14.470;2023-04-01T12:58:15;22.20;52.40
14577;DHT22;7375;46.072;14.470;2023-04-01T13:00:55;22.20;52.50
14577;DHT22;7375;46.072;14.470;2023-04-01T13:03:34;22.20;52.50
14577;DHT22;7375;46.072;14.470;2023-04-01T13:06:11;22.20;52.40
14577;DHT22;7375;46.072;14.470;2023-04-01T13:08:43;22.20;52.10
14577;DHT22;7375;46.072;14.470;2023-04-01T13:11:18;22.20;52.30
14577;DHT22;7375;46.072;14.470;2023-04-01T13:16:41;22.20;52.30
14577;DHT22;7375;46.072;14.470;2023-04-01T13:19:12;22.20;52.30
14577;DHT22;7375;46.072;14.470;2023-04-01T13:21:44;22.20;52.40
14577;DHT22;7375;46.072;14.470;2023-04-01T13:24:22;22.20;52.50
14577;DHT22;7375;46.072;14.470;2023-04-01T13:26:53;22.10;52.50
14577;DHT22;7375;46.072;14.470;2023-04-01T13:29:23;22.10;52.50
14577;DHT22;7375;46.072;14.470;2023-04-01T13:31:55;22.10;52.60
14577;DHT22;7375;46.072;14.470;2023-04-01T13:34:38;22.10;52.60
14577;DHT22;7375;46.072;14.470;2023-04-01T13:37:14;22.10;52.70
14577;DHT22;7375;46.072;14.470;2023-04-01T13:39:48;22.00;52.70
14577;DHT22;7375;46.072;14.470;2023-04-01T13:42:21;22.00;52.70
14577;DHT22;7375;46.072;14.470;2023-04-01T13:44:51;22.00;52.80
14577;DHT22;7375;46.072;14.470;2023-04-01T13:56:00;21.90;52.90
14577;DHT22;7375;46.072;14.470;2023-04-01T13:58:35;21.90;52.90
14577;DHT22;7375;46.072;14.470;2023-04-01T14:01:06;21.90;53.00
14577;DHT22;7375;46.072;14.470;2023-04-01T14:03:42;21.90;53.00
14577;DHT22;7375;46.072;14.470;2023-04-01T14:06:16;21.90;53.10
14577;DHT22;7375;46.072;14.470;2023-04-01T14:11:48;21.80;53.00
14577;DHT22;7375;46.072;14.470;2023-04-01T14:14:21;21.80;53.10
14577;DHT22;7375;46.072;14.470;2023-04-01T14:17:02;21.80;53.10
14577;DHT22;7375;46.072;14.470;2023-04-01T14:19:34;21.80;53.20
14577;DHT22;7375;46.072;14.470;2023-04-01T14:22:09;21.80;53.20
14577;DHT22;7375;46.072;14.470;2023-04-01T14:24:43;21.80;53.20
14577;DHT22;7375;46.072;14.470;2023-04-01T14:27:17;21.80;53.20
14577;DHT22;7375;46.072;14.470;2023-04-01T14:32:37;21.70;53.30
14577;DHT22;7375;46.072;14.470;2023-04-01T14:35:12;21.70;53.30
14577;DHT22;7375;46.072;14.470;2023-04-01T14:37:59;21.70;53.30
14577;DHT22;7375;46.072;14.470;2023-04-01T14:40:28;21.70;53.40
14577;DHT22;7375;46.072;14.470;2023-04-01T14:43:01;21.70;53.30
14577;DHT22;7375;46.072;14.470;2023-04-01T14:45:45;21.70;53.30
14577;DHT22;7375;46.072;14.470;2023-04-01T14:48:17;21.70;53.30
14577;DHT22;7375;46.072;14.470;2023-04-01T14:50:49;21.70;53.30
14577;DHT22;7375;46.072;14.470;2023-04-01T14:53:23;21.70;53.30
14577;DHT22;7375;46.072;14.470;2023-04-01T14:55:52;21.70;53.30
14577;DHT22;7375;46.072;14.470;2023-04-01T14:58:22;21.70;53.30
14577;DHT22;7375;46.072;14.470;2023-04-01T15:00:54;21.70;53.20
14577;DHT22;7375;46.072;14.470;2023-04-01T15:03:25;21.70;53.20
14577;DHT22;7375;46.072;14.470;2023-04-01T15:05:55;21.70;53.20
14577;DHT22;7375;46.072;14.470;2023-04-01T15:08:23;21.70;53.20
14577;DHT22;7375;46.072;14.470;2023-04-01T15:11:06;21.70;53.20
14577;DHT22;7375;46.072;14.470;2023-04-01T15:16:36;21.70;53.20
14577;DHT22;7375;46.072;14.470;2023-04-01T15:19:10;21.70;53.20
14577;DHT22;7375;46.072;14.470;2023-04-01T15:21:50;21.70;53.10
14577;DHT22;7375;46.072;14.470;2023-04-01T15:24:21;21.70;53.20
14577;DHT22;7375;46.072;14.470;2023-04-01T15:29:45;21.70;53.20
14577;DHT22;7375;46.072;14.470;2023-04-01T15:32:17;21.70;53.20
14577;DHT22;7375;46.072;14.470;2023-04-01T15:34:48;21.70;53.20
14577;DHT22;7375;46.072;14.470;2023-04-01T15:37:17;21.70;53.20
14577;DHT22;7375;46.072;14.470;2023-04-01T15:39:52;21.70;53.30
14577;DHT22;7375;46.072;14.470;2023-04-01T15:42:30;21.70;53.30
14577;DHT22;7375;46.072;14.470;2023-04-01T15:45:01;21.70;53.30
14577;DHT22;7375;46.072;14.470;2023-04-01T15:47:33;21.60;53.30
14577;DHT22;7375;46.072;14.470;2023-04-01T15:52:48;21.60;54.00
14577;DHT22;7375;46.072;14.470;2023-04-01T15:55:19;21.60;53.50
14577;DHT22;7375;46.072;14.470;2023-04-01T15:57:51;21.50;53.40
14577;DHT22;7375;46.072;14.470;2023-04-01T16:00:21;21.50;53.50
14577;DHT22;7375;46.072;14.470;2023-04-01T16:02:53;21.50;53.50
14577;DHT22;7375;46.072;14.470;2023-04-01T16:05:34;21.50;53.60
14577;DHT22;7375;46.072;14.470;2023-04-01T16:08:09;21.50;53.70
14577;DHT22;7375;46.072;14.470;2023-04-01T16:10:43;21.40;53.60
14577;DHT22;7375;46.072;14.470;2023-04-01T16:13:22;21.40;53.70
14577;DHT22;7375;46.072;14.470;2023-04-01T16:15:53;21.40;53.70
14577;DHT22;7375;46.072;14.470;2023-04-01T16:18:29;21.40;53.70
14577;DHT22;7375;46.072;14.470;2023-04-01T16:21:00;21.40;53.70
14577;DHT22;7375;46.072;14.470;2023-04-01T16:23:30;21.40;53.80
14577;DHT22;7375;46.072;14.470;2023-04-01T16:26:02;21.40;53.80
14577;DHT22;7375;46.072;14.470;2023-04-01T16:28:32;21.40;53.90
14577;DHT22;7375;46.072;14.470;2023-04-01T16:31:04;21.40;53.90
14577;DHT22;7375;46.072;14.470;2023-04-01T16:33:44;21.30;53.80
14577;DHT22;7375;46.072;14.470;2023-04-01T16:36:19;21.30;53.80
14577;DHT22;7375;46.072;14.470;2023-04-01T16:38:49;21.30;53.90
14577;DHT22;7375;46.072;14.470;2023-04-01T16:41:17;21.30;53.90
14577;DHT22;7375;46.072;14.470;2023-04-01T16:43:46;21.30;53.90
14577;DHT22;7375;46.072;14.470;2023-04-01T16:46:26;21.30;53.90
14577;DHT22;7375;46.072;14.470;2023-04-01T16:49:02;21.30;53.90
14577;DHT22;7375;46.072;14.470;2023-04-01T16:51:35;21.30;53.90
14577;DHT22;7375;46.072;14.470;2023-04-01T16:54:05;21.30;53.80
14577;DHT22;7375;46.072;14.470;2023-04-01T16:56:36;21.30;53.70
14577;DHT22;7375;46.072;14.470;2023-04-01T16:59:06;21.30;53.70
14577;DHT22;7375;46.072;14.470;2023-04-01T17:01:37;21.30;53.60
14577;DHT22;7375;46.072;14.470;2023-04-01T17:04:11;21.40;53.70
14577;DHT22;7375;46.072;14.470;2023-04-01T17:06:41;21.40;53.70
14577;DHT22;7375;46.072;14.470;2023-04-01T17:09:16;21.40;53.60
14577;DHT22;7375;46.072;14.470;2023-04-01T17:11:46;21.40;53.50
14577;DHT22;7375;46.072;14.470;2023-04-01T17:14:16;21.40;53.50
14577;DHT22;7375;46.072;14.470;2023-04-01T17:16:50;21.40;53.40
14577;DHT22;7375;46.072;14.470;2023-04-01T17:19:24;21.40;53.40
14577;DHT22;7375;46.072;14.470;2023-04-01T17:21:56;21.40;53.40
14577;DHT22;7375;46.072;14.470;2023-04-01T17:24:37;21.40;53.50
14577;DHT22;7375;46.072;14.470;2023-04-01T17:27:08;21.40;53.50
14577;DHT22;7375;46.072;14.470;2023-04-01T17:29:43;21.30;53.50
14577;DHT22;7375;46.072;14.470;2023-04-01T17:32:12;21.30;53.50
14577;DHT22;7375;46.072;14.470;2023-04-01T17:34:47;21.30;53.70
14577;DHT22;7375;46.072;14.470;2023-04-01T17:37:25;21.30;53.70
14577;DHT22;7375;46.072;14.470;2023-04-01T17:39:57;21.20;53.70
14577;DHT22;7375;46.072;14.470;2023-04-01T17:42:30;21.20;53.80
14577;DHT22;7375;46.072;14.470;2023-04-01T17:45:01;21.20;53.90
14577;DHT22;7375;46.072;14.470;2023-04-01T17:47:41;21.20;53.90
14577;DHT22;7375;46.072;14.470;2023-04-01T17:50:17;21.10;53.90